Time;durP1;ratioP1;P1;durP2;ratioP2;P2;SDS_P1;SDS_P2;PMS_P1;PMS_P2;Temp;Humidity;BMP_temperature;BMP_pressure;BME280_temperature;BME280_humidity;BME280_pressure;Samples;Min_cycle;Max_cycle;Signal;HPM_P1;HPM_P2
2023/10/16 00:00:32;;;;;;;0.73;0.73;;;7.20;99.90;;;;;;5081555;28;20048;-81
2023/10/16 00:03:02;;;;;;;0.52;0.52;;;7.20;99.90;;;;;;5082631;28;20161;-80
2023/10/16 00:05:38;;;;;;;0.47;0.47;;;7.20;99.90;;;;;;5083994;28;20114;-80
2023/10/16 00:08:08;;;;;;;0.60;0.60;;;7.20;99.90;;;;;;5080576;28;20072;-79
2023/10/16 00:10:35;;;;;;;0.40;0.40;;;7.20;99.90;;;;;;5099914;27;20426;-79
2023/10/16 00:13:05;;;;;;;0.50;0.50;;;7.20;99.90;;;;;;5081059;28;20052;-80
2023/10/16 00:15:44;;;;;;;0.60;0.60;;;7.20;99.90;;;;;;5079419;28;20048;-79
2023/10/16 00:18:17;;;;;;;0.50;0.50;;;7.20;99.90;;;;;;5080107;28;20083;-79
2023/10/16 00:20:43;;;;;;;0.55;0.55;;;7.20;99.90;;;;;;5077531;28;20043;-79
2023/10/16 00:23:12;;;;;;;0.60;0.60;;;7.20;99.90;;;;;;5079338;28;20089;-80
2023/10/16 00:25:43;;;;;;;0.60;0.60;;;7.10;99.90;;;;;;5085551;28;20060;-79
2023/10/16 00:28:09;;;;;;;0.40;0.40;;;7.10;99.90;;;;;;5097343;27;20143;-79
2023/10/16 00:30:40;;;;;;;0.50;0.50;;;7.00;99.90;;;;;;5081920;28;20047;-79
2023/10/16 00:33:10;;;;;;;0.50;0.50;;;7.10;99.90;;;;;;5075780;28;20545;-78
2023/10/16 00:35:39;;;;;;;0.50;0.50;;;7.00;99.90;;;;;;5086667;28;20078;-77
2023/10/16 00:38:12;;;;;;;0.50;0.50;;;7.10;99.90;;;;;;5080655;28;20420;-77
2023/10/16 00:40:40;;;;;;;0.60;0.60;;;7.10;99.90;;;;;;5079956;28;20048;-78
2023/10/16 00:43:12;;;;;;;0.50;0.50;;;7.10;99.90;;;;;;5081871;28;20044;-78
2023/10/16 00:45:48;;;;;;;0.40;0.40;;;7.10;99.90;;;;;;5084009;28;20136;-76
2023/10/16 00:48:18;;;;;;;0.47;0.47;;;7.10;99.90;;;;;;5076275;28;20039;-77
2023/10/16 00:50:45;;;;;;;0.50;0.50;;;7.10;99.90;;;;;;5078132;28;20032;-76
2023/10/16 00:53:13;;;;;;;0.60;0.60;;;7.10;99.90;;;;;;5112830;28;20050;-76
2023/10/16 00:55:39;;;;;;;0.73;0.73;;;7.20;99.90;;;;;;5093135;28;20044;-76
2023/10/16 00:58:06;;;;;;;0.50;0.50;;;7.20;99.90;;;;;;5085487;28;20139;-76
2023/10/16 01:00:36;;;;;;;0.50;0.50;;;7.30;99.90;;;;;;5078828;28;20052;-77
2023/10/16 01:03:04;;;;;;;0.50;0.50;;;7.20;99.90;;;;;;5080582;28;20051;-76
2023/10/16 01:05:33;;;;;;;0.60;0.60;;;7.20;99.90;;;;;;5084345;28;20667;-76
2023/10/16 01:08:04;;;;;;;0.57;0.57;;;7.30;99.90;;;;;;5081721;28;20048;-76
2023/10/16 01:10:32;;;;;;;0.50;0.50;;;7.20;99.90;;;;;;5078279;28;20052;-76
2023/10/16 01:12:59;;;;;;;0.57;0.57;;;7.20;99.90;;;;;;5078495;28;20048;-75
2023/10/16 01:15:25;;;;;;;0.40;0.40;;;7.20;99.90;;;;;;5075926;28;20055;-76
2023/10/16 01:17:51;;;;;;;0.60;0.60;;;7.20;99.90;;;;;;5084467;28;20056;-76
2023/10/16 01:20:20;;;;;;;0.45;0.45;;;7.20;99.90;;;;;;5083313;28;20052;-76
2023/10/16 01:22:47;;;;;;;0.50;0.50;;;7.20;99.90;;;;;;5093009;28;20052;-76
2023/10/16 01:25:14;;;;;;;0.60;0.60;;;7.10;99.90;;;;;;5078904;28;20040;-77
2023/10/16 01:27:42;;;;;;;0.47;0.47;;;7.20;99.90;;;;;;5079098;28;20506;-77
2023/10/16 01:30:09;;;;;;;0.50;0.50;;;7.30;99.90;;;;;;5078381;28;20049;-76
2023/10/16 01:32:36;;;;;;;0.50;0.50;;;7.20;99.90;;;;;;5080181;28;20060;-77
2023/10/16 01:35:04;;;;;;;0.40;0.40;;;7.20;99.90;;;;;;5080367;28;20555;-77
2023/10/16 01:37:30;;;;;;;0.60;0.60;;;7.30;99.90;;;;;;5080568;28;20055;-77
2023/10/16 01:40:12;;;;;;;;;;;7.20;99.90;;;;;;5086199;28;20503;-77
2023/10/16 01:42:38;;;;;;;0.50;0.50;;;7.10;99.90;;;;;;5082422;28;20018;-76
2023/10/16 01:45:04;;;;;;;0.88;0.88;;;7.00;99.90;;;;;;5085776;28;20147;-77
2023/10/16 01:47:33;;;;;;;0.50;0.50;;;6.90;99.90;;;;;;5087027;28;20132;-77
2023/10/16 01:50:01;;;;;;;0.50;0.50;;;6.80;99.90;;;;;;5082087;28;20048;-77
2023/10/16 01:52:27;;;;;;;0.50;0.50;;;6.80;99.90;;;;;;5078562;28;20071;-76
2023/10/16 01:54:53;;;;;;;0.55;0.55;;;6.70;99.90;;;;;;5084559;28;20479;-76
2023/10/16 01:57:21;;;;;;;0.57;0.57;;;6.60;99.90;;;;;;5085374;28;20048;-76
2023/10/16 01:59:49;;;;;;;0.60;0.60;;;6.60;99.90;;;;;;5079813;28;20105;-77
2023/10/16 02:02:17;;;;;;;0.50;0.50;;;6.70;99.90;;;;;;5082996;28;20078;-76
2023/10/16 02:04:43;;;;;;;0.57;0.57;;;6.60;99.90;;;;;;5086427;28;20432;-76
2023/10/16 02:07:10;;;;;;;0.60;0.60;;;6.80;99.90;;;;;;5084175;28;20052;-76
2023/10/16 02:09:38;;;;;;;;;;;6.70;99.90;;;;;;5078890;28;20075;-76
2023/10/16 02:12:14;;;;;;;0.60;0.60;;;6.70;99.90;;;;;;5080550;28;19983;-76
2023/10/16 02:14:40;;;;;;;0.50;0.50;;;6.70;99.90;;;;;;5080132;28;20048;-76
2023/10/16 02:17:30;;;;;;;0.50;0.50;;;6.70;99.90;;;;;;5082416;28;20073;-77
2023/10/16 02:19:55;;;;;;;0.47;0.47;;;6.60;99.90;;;;;;5082630;28;20078;-75
2023/10/16 02:22:22;;;;;;;0.55;0.55;;;6.60;99.90;;;;;;5086318;28;20087;-75
2023/10/16 02:24:49;;;;;;;0.60;0.60;;;6.70;99.90;;;;;;5084517;28;20036;-75
2023/10/16 02:27:18;;;;;;;0.60;0.60;;;7.30;99.90;;;;;;5083848;28;20059;-75
2023/10/16 02:29:49;;;;;;;0.40;0.40;;;6.80;99.90;;;;;;5075702;28;20055;-76
2023/10/16 02:32:15;;;;;;;0.60;0.60;;;6.70;99.90;;;;;;5079552;28;20071;-75
2023/10/16 02:34:41;;;;;;;0.45;0.45;;;6.70;99.90;;;;;;5081102;28;20577;-75
2023/10/16 02:37:09;;;;;;;;;;;6.70;99.90;;;;;;5082046;28;20052;-75
2023/10/16 02:39:37;;;;;;;0.50;0.50;;;6.50;99.90;;;;;;5083926;28;19924;-75
2023/10/16 02:42:12;;;;;;;0.60;0.60;;;6.60;99.90;;;;;;5082771;28;20036;-75
2023/10/16 02:44:45;;;;;;;0.60;0.60;;;6.40;99.90;;;;;;5086539;28;20064;-75
2023/10/16 02:47:19;;;;;;;0.45;0.45;;;6.40;99.90;;;;;;5105149;28;20047;-74
2023/10/16 02:49:48;;;;;;;0.50;0.50;;;6.40;99.90;;;;;;5099566;27;20539;-75
2023/10/16 02:52:17;;;;;;;0.50;0.50;;;6.30;99.90;;;;;;5100539;28;20067;-75
2023/10/16 02:54:45;;;;;;;0.40;0.40;;;6.40;99.90;;;;;;5098985;27;20052;-75
2023/10/16 02:57:11;;;;;;;0.52;0.52;;;6.40;99.90;;;;;;5116102;27;20104;-73
2023/10/16 02:59:38;;;;;;;;;;;7.10;99.90;;;;;;5105537;28;20334;-74
2023/10/16 03:02:13;;;;;;;0.40;0.40;;;6.70;99.90;;;;;;5105163;27;19998;-74
2023/10/16 03:04:40;;;;;;;0.50;0.50;;;6.80;99.90;;;;;;5103931;28;20039;-73
2023/10/16 03:07:07;;;;;;;0.60;0.60;;;6.90;99.90;;;;;;5097948;27;20071;-74
2023/10/16 03:09:33;;;;;;;0.50;0.50;;;6.90;99.90;;;;;;5099735;28;20108;-73
2023/10/16 03:12:07;;;;;;;0.60;0.60;;;6.90;99.90;;;;;;5099876;28;20405;-73
2023/10/16 03:14:45;;;;;;;0.52;0.52;;;6.90;99.90;;;;;;5079769;28;20047;-74
2023/10/16 03:17:34;;;;;;;0.40;0.40;;;6.90;99.90;;;;;;5098352;28;20504;-73
2023/10/16 03:20:01;;;;;;;0.60;0.60;;;6.90;99.90;;;;;;5100661;28;20105;-74
2023/10/16 03:22:28;;;;;;;0.60;0.60;;;7.60;99.90;;;;;;5101578;28;20047;-74
2023/10/16 03:24:55;;;;;;;0.50;0.50;;;7.20;99.90;;;;;;5104252;27;20051;-73
2023/10/16 03:27:28;;;;;;;0.40;0.40;;;7.00;99.90;;;;;;5105589;27;20075;-74
2023/10/16 03:29:58;;;;;;;0.47;0.47;;;7.00;99.90;;;;;;5097504;27;20054;-74
2023/10/16 03:32:24;;;;;;;0.50;0.50;;;7.10;99.90;;;;;;5105234;27;20050;-74
2023/10/16 03:34:51;;;;;;;0.40;0.40;;;7.10;99.90;;;;;;5097888;28;20039;-74
2023/10/16 03:37:20;;;;;;;0.40;0.40;;;7.60;99.90;;;;;;5099849;28;20035;-73
2023/10/16 03:39:56;;;;;;;0.60;0.60;;;7.20;99.90;;;;;;5104224;27;20059;-75
2023/10/16 03:42:23;;;;;;;0.50;0.50;;;7.20;99.90;;;;;;5101308;27;20059;-75
2023/10/16 03:44:49;;;;;;;0.60;0.60;;;7.20;99.90;;;;;;5101978;28;20059;-75
2023/10/16 03:47:14;;;;;;;;;;;7.10;99.90;;;;;;5101773;28;20046;-74
2023/10/16 03:49:41;;;;;;;0.47;0.47;;;7.10;99.90;;;;;;5099953;28;19923;-75
2023/10/16 03:52:08;;;;;;;0.50;0.50;;;7.10;99.90;;;;;;5086690;28;20052;-75
2023/10/16 03:54:35;;;;;;;0.60;0.60;;;7.10;99.90;;;;;;5096846;28;20533;-75
2023/10/16 03:57:09;;;;;;;0.60;0.60;;;7.10;99.90;;;;;;5095907;28;20055;-75
2023/10/16 03:59:35;;;;;;;0.40;0.40;;;7.10;99.90;;;;;;5097812;27;20082;-75
2023/10/16 04:02:04;;;;;;;0.60;0.60;;;7.10;99.90;;;;;;5108637;28;20083;-75
2023/10/16 04:04:30;;;;;;;0.45;0.45;;;7.20;99.90;;;;;;5097016;28;20079;-75
2023/10/16 04:06:57;;;;;;;0.60;0.60;;;7.30;99.90;;;;;;5125203;27;20078;-74
2023/10/16 04:09:33;;;;;;;0.50;0.50;;;7.20;99.90;;;;;;5103900;28;20039;-75
2023/10/16 04:12:04;;;;;;;0.50;0.50;;;7.30;99.90;;;;;;5101975;27;20152;-75
2023/10/16 04:14:45;;;;;;;0.50;0.50;;;7.30;99.90;;;;;;5096771;28;20525;-75
2023/10/16 04:17:11;;;;;;;0.47;0.47;;;7.30;99.90;;;;;;5102274;28;20036;-75
2023/10/16 04:22:24;;;;;;;0.60;0.60;;;7.30;99.90;;;;;;5100646;28;20133;-74
2023/10/16 04:24:54;;;;;;;0.60;0.60;;;7.30;99.90;;;;;;5100673;28;20048;-75
2023/10/16 04:29:49;;;;;;;0.57;0.57;;;7.30;99.90;;;;;;5102106;28;20048;-75
2023/10/16 04:34:54;;;;;;;0.50;0.50;;;7.30;99.90;;;;;;5099192;28;20040;-75
2023/10/16 04:47:55;;;;;;;0.40;0.40;;;7.50;99.90;;;;;;5103172;28;20049;-75
2023/10/16 05:01:22;;;;;;;0.47;0.47;;;7.30;99.90;;;;;;5098210;28;20112;-74
2023/10/16 05:14:19;;;;;;;0.50;0.50;;;7.30;99.90;;;;;;5105600;27;20084;-74
2023/10/16 06:15:07;;;;;;;0.60;0.60;;;7.30;99.90;;;;;;5094642;27;20168;-74
2023/10/16 06:17:37;;;;;;;0.47;0.47;;;7.30;99.90;;;;;;5101119;28;20390;-75
2023/10/16 06:20:04;;;;;;;0.75;0.75;;;7.30;99.90;;;;;;5088435;28;20177;-75
2023/10/16 06:22:30;;;;;;;0.50;0.50;;;7.30;99.90;;;;;;5107511;28;20039;-74
2023/10/16 06:24:56;;;;;;;0.60;0.60;;;7.30;99.90;;;;;;5107738;27;20050;-74
2023/10/16 06:27:22;;;;;;;;;;;7.30;99.90;;;;;;5108305;28;20051;-74
2023/10/16 06:29:51;;;;;;;0.57;0.57;;;7.30;99.90;;;;;;5108773;27;19928;-74
2023/10/16 06:32:22;;;;;;;0.65;0.65;;;7.30;99.90;;;;;;5106653;28;20123;-74
2023/10/16 06:34:49;;;;;;;0.40;0.40;;;7.30;99.90;;;;;;5108936;28;20062;-74
2023/10/16 06:37:19;;;;;;;0.50;0.50;;;7.30;99.90;;;;;;5108621;28;20193;-74
2023/10/16 06:39:49;;;;;;;0.50;0.50;;;7.30;99.90;;;;;;5106473;27;20166;-74
2023/10/16 06:42:17;;;;;;;0.50;0.50;;;7.40;99.90;;;;;;5105363;27;20054;-74
2023/10/16 06:44:54;;;;;;;0.50;0.50;;;7.40;99.90;;;;;;5109875;28;20057;-74
2023/10/16 06:47:23;;;;;;;0.52;0.52;;;7.40;99.90;;;;;;5108533;28;20580;-74
2023/10/16 06:49:54;;;;;;;0.50;0.50;;;7.40;99.90;;;;;;5109185;28;20074;-74
2023/10/16 06:52:20;;;;;;;0.57;0.57;;;7.40;99.90;;;;;;5093740;28;20054;-74
2023/10/16 06:54:46;;;;;;;0.55;0.55;;;7.40;99.90;;;;;;5107945;27;20059;-74
2023/10/16 06:57:11;;;;;;;;;;;7.40;99.90;;;;;;5105519;28;20044;-74
2023/10/16 06:59:41;;;;;;;0.50;0.50;;;7.40;99.90;;;;;;5104816;27;19924;-74
2023/10/16 07:02:15;;;;;;;0.50;0.50;;;7.50;99.90;;;;;;5089658;28;20287;-73
2023/10/16 07:04:44;;;;;;;0.60;0.60;;;7.50;99.90;;;;;;5110059;28;20039;-75
2023/10/16 07:07:18;;;;;;;0.50;0.50;;;7.60;99.90;;;;;;5105432;27;20039;-74
2023/10/16 07:09:47;;;;;;;0.50;0.50;;;7.60;99.90;;;;;;5102085;28;20050;-74
2023/10/16 07:12:18;;;;;;;0.50;0.50;;;7.70;99.90;;;;;;5107753;28;20043;-74
2023/10/16 07:14:57;;;;;;;0.70;0.70;;;7.70;99.90;;;;;;5109322;27;20046;-74
2023/10/16 07:17:28;;;;;;;0.40;0.40;;;7.80;99.90;;;;;;5087562;28;20462;-75
2023/10/16 07:20:00;;;;;;;0.52;0.52;;;7.80;99.90;;;;;;5106213;28;20054;-74
2023/10/16 07:22:33;;;;;;;0.35;0.35;;;7.80;99.90;;;;;;5108130;28;20075;-74
2023/10/16 07:27:47;;;;;;;0.47;0.47;;;7.90;99.90;;;;;;5105837;27;20521;-75
2023/10/16 07:30:22;;;;;;;;;;;8.00;99.90;;;;;;5102025;28;20039;-74
2023/10/16 07:32:48;;;;;;;0.60;0.60;;;8.00;99.90;;;;;;5105325;27;19927;-75
2023/10/16 07:35:18;;;;;;;0.50;0.50;;;8.10;99.90;;;;;;5121534;27;20093;-74
2023/10/16 07:37:48;;;;;;;0.50;0.50;;;8.20;99.90;;;;;;5107446;28;20055;-75
2023/10/16 07:40:20;;;;;;;0.60;0.60;;;8.30;99.90;;;;;;5106314;27;20870;-75
2023/10/16 07:42:48;;;;;;;0.40;0.40;;;8.30;99.90;;;;;;5107327;27;20054;-75
2023/10/16 07:45:14;;;;;;;0.60;0.60;;;8.40;99.90;;;;;;5103177;27;20539;-75
2023/10/16 07:47:40;;;;;;;0.40;0.40;;;8.50;99.90;;;;;;5106829;27;20094;-75
2023/10/16 07:50:07;;;;;;;0.75;0.60;;;8.60;99.90;;;;;;5103984;28;20048;-75
2023/10/16 07:52:34;;;;;;;0.60;0.60;;;8.70;99.90;;;;;;5105621;28;20547;-75
2023/10/16 07:55:04;;;;;;;1.30;1.25;;;8.70;99.90;;;;;;5106789;28;20127;-75
2023/10/16 07:57:32;;;;;;;0.40;0.40;;;8.80;99.90;;;;;;5108208;28;20122;-75
2023/10/16 08:00:07;;;;;;;0.50;0.50;;;8.90;99.90;;;;;;5106954;28;20048;-78
2023/10/16 08:02:33;;;;;;;0.50;0.50;;;8.90;99.90;;;;;;5108105;28;20046;-77
2023/10/16 08:05:03;;;;;;;0.43;0.43;;;9.00;99.90;;;;;;5095223;28;20036;-75
2023/10/16 08:07:47;;;;;;;0.40;0.40;;;9.10;99.90;;;;;;5107288;27;20051;-75
2023/10/16 08:10:40;;;;;;;0.28;0.28;;;9.10;99.90;;;;;;5098278;28;20043;-75
2023/10/16 08:13:12;;;;;;;0.40;0.40;;;9.20;99.90;;;;;;5098083;28;20116;-75
2023/10/16 08:15:45;;;;;;;0.95;0.82;;;9.30;99.90;;;;;;5100548;28;20046;-75
2023/10/16 08:18:13;;;;;;;0.30;0.30;;;9.40;99.90;;;;;;5107614;27;20047;-75
2023/10/16 08:23:24;;;;;;;0.35;0.35;;;9.60;99.90;;;;;;5104715;27;20463;-75
2023/10/16 08:25:49;;;;;;;0.38;0.38;;;9.70;99.90;;;;;;5108520;27;20127;-75
2023/10/16 08:28:22;;;;;;;0.40;0.40;;;9.70;99.90;;;;;;5105435;27;20896;-76
2023/10/16 08:33:16;;;;;;;;;;;9.90;99.90;;;;;;5108316;28;20150;-75
2023/10/16 08:35:43;;;;;;;0.43;0.43;;;10.00;99.90;;;;;;5108157;28;20692;-75
2023/10/16 08:38:25;;;;;;;0.47;0.47;;;10.10;99.90;;;;;;5108122;28;20132;-74
2023/10/16 08:40:58;;;;;;;0.30;0.30;;;10.20;99.90;;;;;;5087974;28;20183;-75
2023/10/16 08:43:39;;;;;;;0.30;0.30;;;10.20;99.90;;;;;;5104227;28;20032;-75
2023/10/16 08:46:18;;;;;;;0.40;0.40;;;10.30;99.90;;;;;;5105641;28;20128;-75
2023/10/16 08:48:48;;;;;;;0.40;0.40;;;10.30;99.90;;;;;;5107185;28;20047;-75
2023/10/16 08:51:16;;;;;;;0.25;0.25;;;10.50;99.90;;;;;;5104187;28;20348;-75
2023/10/16 08:53:44;;;;;;;0.30;0.30;;;10.70;99.90;;;;;;5105493;28;20043;-75
2023/10/16 08:56:12;;;;;;;0.30;0.30;;;10.90;99.90;;;;;;5106128;28;20100;-75
2023/10/16 08:58:45;;;;;;;0.30;0.30;;;10.90;99.90;;;;;;5107474;28;21097;-75
2023/10/16 09:01:13;;;;;;;0.32;0.32;;;10.80;99.90;;;;;;5105272;28;20513;-75
2023/10/16 09:03:51;;;;;;;0.30;0.30;;;10.70;99.90;;;;;;5105049;28;20055;-75
2023/10/16 09:06:24;;;;;;;0.25;0.25;;;10.60;99.90;;;;;;5101458;28;20493;-75
2023/10/16 09:08:54;;;;;;;0.20;0.20;;;10.60;99.90;;;;;;5105935;28;20048;-74
2023/10/16 09:11:21;;;;;;;0.30;0.30;;;10.60;99.90;;;;;;5106645;28;20108;-75
2023/10/16 09:13:53;;;;;;;0.30;0.30;;;10.60;99.90;;;;;;5104621;28;20043;-74
2023/10/16 09:16:21;;;;;;;0.25;0.25;;;10.60;99.90;;;;;;5110081;28;20051;-75
2023/10/16 09:18:53;;;;;;;0.30;0.30;;;10.50;99.90;;;;;;5107486;28;20119;-75
2023/10/16 09:21:28;;;;;;;0.40;0.40;;;10.60;99.90;;;;;;5105468;28;20052;-75
2023/10/16 09:24:00;;;;;;;0.47;0.47;;;10.70;99.90;;;;;;5103117;28;20092;-75
2023/10/16 09:26:32;;;;;;;0.38;0.38;;;10.80;99.90;;;;;;5102919;28;20046;-75
2023/10/16 09:29:04;;;;;;;0.30;0.30;;;11.00;99.90;;;;;;5105749;28;20051;-75
2023/10/16 09:31:31;;;;;;;0.50;0.50;;;11.00;99.90;;;;;;5103049;28;20470;-75
2023/10/16 09:33:57;;;;;;;0.40;0.40;;;11.10;99.90;;;;;;5105558;28;20059;-74
2023/10/16 09:36:23;;;;;;;0.40;0.40;;;11.10;99.90;;;;;;5106206;28;20174;-74
2023/10/16 09:38:51;;;;;;;0.30;0.30;;;11.00;99.90;;;;;;5107537;28;20054;-74
2023/10/16 09:49:22;;;;;;;0.30;0.30;;;11.40;99.90;;;;;;5106685;28;20055;-74
2023/10/16 09:51:50;;;;;;;0.40;0.40;;;11.50;99.90;;;;;;5106114;28;20052;-74
2023/10/16 09:54:16;;;;;;;0.40;0.40;;;11.50;99.90;;;;;;5091258;28;20586;-75
2023/10/16 09:56:48;;;;;;;0.30;0.30;;;11.50;99.90;;;;;;5110354;28;20105;-75
2023/10/16 09:59:38;;;;;;;0.30;0.30;;;11.40;99.90;;;;;;5113666;27;20052;-74
2023/10/16 10:02:16;;;;;;;0.20;0.20;;;11.50;99.90;;;;;;5108139;28;20083;-75
2023/10/16 10:04:59;;;;;;;0.30;0.30;;;11.60;99.90;;;;;;5094707;28;20079;-74
2023/10/16 10:07:38;;;;;;;0.40;0.40;;;11.70;99.90;;;;;;5108113;28;20113;-75
2023/10/16 10:13:10;;;;;;;0.20;0.20;;;11.90;99.90;;;;;;5111376;27;20071;-75
2023/10/16 10:15:45;;;;;;;0.40;0.40;;;11.90;99.90;;;;;;5106503;27;20094;-74
2023/10/16 10:18:32;;;;;;;0.52;0.52;;;11.90;99.90;;;;;;5107165;27;20520;-75
2023/10/16 10:20:58;;;;;;;0.30;0.30;;;11.90;99.90;;;;;;5111125;27;20108;-75
2023/10/16 10:23:28;;;;;;;0.50;0.50;;;11.90;99.90;;;;;;5107297;28;20599;-75
2023/10/16 10:25:54;;;;;;;0.40;0.40;;;12.00;99.90;;;;;;5109475;28;20059;-75
2023/10/16 10:28:28;;;;;;;0.40;0.40;;;12.10;99.90;;;;;;5093231;28;20050;-75
2023/10/16 10:31:02;;;;;;;0.30;0.30;;;12.10;99.90;;;;;;5108326;27;20081;-75
2023/10/16 10:33:36;;;;;;;0.30;0.30;;;12.00;99.90;;;;;;5109007;28;20054;-74
2023/10/16 10:36:33;;;;;;;0.30;0.30;;;11.90;99.90;;;;;;5107744;27;20111;-75
2023/10/16 10:41:55;;;;;;;0.32;0.32;;;11.60;99.90;;;;;;5107139;27;20049;-75
2023/10/16 10:44:31;;;;;;;0.38;0.38;;;11.70;99.90;;;;;;5109786;27;20053;-75
2023/10/16 10:47:00;;;;;;;0.30;0.30;;;11.80;99.90;;;;;;5106300;27;20055;-75
2023/10/16 10:49:33;;;;;;;0.30;0.30;;;12.00;99.90;;;;;;5106396;28;20095;-75
2023/10/16 10:52:05;;;;;;;0.20;0.20;;;12.30;99.90;;;;;;5106645;27;20127;-75
2023/10/16 10:54:31;;;;;;;0.50;0.50;;;12.40;99.90;;;;;;5107260;28;20040;-74
2023/10/16 10:57:07;;;;;;;;;;;12.40;99.90;;;;;;5110574;27;20035;-74
2023/10/16 10:59:46;;;;;;;0.30;0.30;;;12.30;99.90;;;;;;5109066;28;19920;-74
2023/10/16 11:04:58;;;;;;;0.30;0.30;;;12.10;99.90;;;;;;5107965;28;20043;-74
2023/10/16 11:08:22;;;;;;;0.30;0.30;;;12.20;99.90;;;;;;5108355;28;20043;-74
2023/10/16 11:10:25;;;;;;;0.38;0.38;;;12.20;99.90;;;;;;5098011;28;20085;-74
2023/10/16 11:12:51;;;;;;;0.30;0.30;;;12.30;99.90;;;;;;5108333;27;20075;-75
2023/10/16 11:15:16;;;;;;;0.30;0.30;;;12.30;99.90;;;;;;5105979;28;20121;-75
2023/10/16 11:17:44;;;;;;;0.40;0.40;;;12.40;99.90;;;;;;5109823;28;20040;-74
2023/10/16 11:22:46;;;;;;;0.40;0.40;;;12.50;99.90;;;;;;5104145;27;20112;-75
2023/10/16 11:25:15;;;;;;;0.20;0.20;;;12.60;99.90;;;;;;5107280;28;20418;-75
2023/10/16 11:27:42;;;;;;;0.38;0.38;;;12.60;99.90;;;;;;5107631;27;20050;-75
2023/10/16 11:30:13;;;;;;;0.30;0.30;;;12.50;99.90;;;;;;5107312;28;20040;-75
2023/10/16 11:32:45;;;;;;;0.20;0.20;;;12.50;99.90;;;;;;5107184;28;20477;-75
2023/10/16 11:35:15;;;;;;;0.30;0.30;;;12.60;99.90;;;;;;5108045;28;20381;-75
2023/10/16 11:37:52;;;;;;;0.30;0.30;;;12.60;99.90;;;;;;5107852;27;20051;-75
2023/10/16 11:40:24;;;;;;;0.30;0.30;;;12.60;99.90;;;;;;5106926;28;20050;-76
2023/10/16 11:42:52;;;;;;;0.30;0.30;;;12.80;99.90;;;;;;5106881;28;20135;-75
2023/10/16 11:45:20;;;;;;;0.30;0.30;;;12.90;99.90;;;;;;5085733;28;20114;-76
2023/10/16 11:50:40;;;;;;;0.30;0.30;;;12.80;99.90;;;;;;5059698;28;20055;-75
2023/10/16 11:53:07;;;;;;;0.40;0.40;;;12.70;99.90;;;;;;5061319;28;20055;-75
2023/10/16 11:55:42;;;;;;;0.20;0.20;;;12.60;99.90;;;;;;5059874;28;20044;-75
2023/10/16 11:58:08;;;;;;;0.30;0.30;;;12.70;99.90;;;;;;5061755;28;20048;-75
2023/10/16 12:00:43;;;;;;;0.30;0.30;;;12.60;99.90;;;;;;5056916;28;20376;-75
2023/10/16 12:03:14;;;;;;;0.30;0.30;;;12.60;99.90;;;;;;5060266;28;20052;-75
2023/10/16 12:05:42;;;;;;;0.30;0.30;;;12.70;99.90;;;;;;5057465;28;20116;-75
2023/10/16 12:08:08;;;;;;;0.38;0.38;;;12.80;99.90;;;;;;5059260;28;20051;-75
2023/10/16 12:10:35;;;;;;;0.30;0.30;;;12.70;99.90;;;;;;5057172;28;20047;-75
2023/10/16 12:13:03;;;;;;;0.30;0.30;;;12.60;99.90;;;;;;5062622;28;20076;-75
2023/10/16 12:15:29;;;;;;;0.20;0.20;;;12.50;99.90;;;;;;5062492;28;20047;-75
2023/10/16 12:17:55;;;;;;;0.32;0.32;;;12.40;99.90;;;;;;5065390;28;20040;-75
2023/10/16 12:20:26;;;;;;;0.32;0.32;;;12.40;99.90;;;;;;5066049;28;20047;-75
2023/10/16 12:22:52;;;;;;;0.40;0.40;;;12.40;99.90;;;;;;5067037;28;20048;-75
2023/10/16 12:25:18;;;;;;;0.30;0.30;;;12.40;99.90;;;;;;5071295;28;20045;-75
2023/10/16 12:27:45;;;;;;;0.30;0.30;;;12.50;99.90;;;;;;5059563;28;20825;-75
2023/10/16 12:30:15;;;;;;;0.25;0.25;;;12.60;99.90;;;;;;5063622;28;20050;-75
2023/10/16 12:32:41;;;;;;;0.40;0.40;;;12.70;99.90;;;;;;5065283;28;20044;-75
2023/10/16 12:35:11;;;;;;;;;;;12.80;99.90;;;;;;5066495;28;20072;-75
2023/10/16 12:37:41;;;;;;;0.30;0.30;;;12.90;99.90;;;;;;5063702;28;19994;-74
2023/10/16 12:42:53;;;;;;;0.30;0.30;;;13.20;99.90;;;;;;5063996;28;20059;-75
2023/10/16 12:45:23;;;;;;;0.30;0.30;;;13.30;99.90;;;;;;5082984;28;20590;-75
2023/10/16 12:47:52;;;;;;;0.30;0.30;;;13.30;99.90;;;;;;5085952;28;20127;-75
2023/10/16 12:50:23;;;;;;;0.20;0.20;;;13.30;99.90;;;;;;5106321;28;20485;-75
2023/10/16 12:53:00;;;;;;;0.25;0.25;;;13.20;99.90;;;;;;5087468;28;20055;-75
2023/10/16 12:55:26;;;;;;;0.40;0.40;;;13.20;99.90;;;;;;5104445;28;20181;-76
2023/10/16 12:57:53;;;;;;;0.30;0.30;;;13.20;99.90;;;;;;5106753;28;20045;-75
2023/10/16 13:00:20;;;;;;;0.30;0.30;;;13.20;99.90;;;;;;5106338;28;20866;-75
2023/10/16 13:02:48;;;;;;;0.25;0.25;;;13.20;99.90;;;;;;5106983;28;20685;-75
2023/10/16 13:05:26;;;;;;;0.35;0.35;;;13.20;99.90;;;;;;5106503;28;20078;-75
2023/10/16 13:07:52;;;;;;;0.30;0.30;;;13.20;99.90;;;;;;5106748;28;20107;-75
2023/10/16 13:10:20;;;;;;;0.30;0.30;;;13.20;99.90;;;;;;5105837;28;20044;-75
2023/10/16 13:12:47;;;;;;;0.38;0.38;;;13.20;99.90;;;;;;5119913;27;20075;-75
2023/10/16 13:15:15;;;;;;;0.30;0.30;;;13.20;99.90;;;;;;5104101;28;20120;-75
2023/10/16 13:17:44;;;;;;;0.30;0.30;;;13.30;99.90;;;;;;5104229;28;20171;-75
2023/10/16 13:20:17;;;;;;;0.20;0.20;;;13.30;99.90;;;;;;5105230;28;20048;-75
2023/10/16 13:22:52;;;;;;;0.30;0.30;;;13.30;99.90;;;;;;5102939;28;20135;-75
2023/10/16 13:25:22;;;;;;;0.28;0.28;;;13.30;99.90;;;;;;5086672;28;20055;-76
2023/10/16 13:27:48;;;;;;;0.30;0.30;;;13.40;99.90;;;;;;5106165;28;20082;-75
2023/10/16 13:30:18;;;;;;;0.30;0.30;;;13.50;99.90;;;;;;5108156;28;20103;-75
2023/10/16 13:32:47;;;;;;;0.30;0.30;;;13.50;99.90;;;;;;5109371;28;20043;-75
2023/10/16 13:35:16;;;;;;;0.30;0.30;;;13.60;99.90;;;;;;5109902;28;20040;-75
2023/10/16 13:37:46;;;;;;;0.40;0.40;;;13.70;99.90;;;;;;5108713;28;20545;-75
2023/10/16 13:40:24;;;;;;;0.30;0.30;;;13.70;99.90;;;;;;5108341;28;20035;-75
2023/10/16 13:42:55;;;;;;;0.30;0.30;;;13.70;99.90;;;;;;5107309;27;20047;-75
2023/10/16 13:45:21;;;;;;;0.20;0.20;;;13.60;99.90;;;;;;5106306;28;20386;-75
2023/10/16 13:47:49;;;;;;;0.30;0.30;;;13.50;99.90;;;;;;5109374;28;20048;-75
2023/10/16 13:50:25;;;;;;;0.20;0.20;;;13.50;99.90;;;;;;5108703;28;20098;-75
2023/10/16 13:52:52;;;;;;;0.30;0.30;;;13.40;99.90;;;;;;5091050;28;20039;-74
2023/10/16 13:55:21;;;;;;;0.20;0.20;;;13.40;99.90;;;;;;5107708;27;20039;-75
2023/10/16 13:57:48;;;;;;;0.25;0.25;;;13.40;99.90;;;;;;5106991;28;20039;-75
2023/10/16 14:00:31;;;;;;;0.30;0.30;;;13.40;99.90;;;;;;5108923;28;20812;-75
2023/10/16 14:03:10;;;;;;;0.30;0.30;;;13.40;99.90;;;;;;5107152;28;20136;-75
2023/10/16 14:05:42;;;;;;;0.28;0.28;;;13.40;99.90;;;;;;5106014;28;20039;-76
2023/10/16 14:08:14;;;;;;;0.30;0.30;;;13.20;99.90;;;;;;5108787;27;20067;-75
2023/10/16 14:10:52;;;;;;;0.20;0.20;;;13.20;99.90;;;;;;5103780;28;20146;-75
2023/10/16 14:13:21;;;;;;;0.20;0.20;;;13.10;99.90;;;;;;5106133;28;20051;-75
2023/10/16 14:15:49;;;;;;;0.30;0.30;;;13.00;99.90;;;;;;5086383;28;20058;-74
2023/10/16 14:18:16;;;;;;;0.30;0.30;;;13.00;99.90;;;;;;5088194;28;20047;-74
2023/10/16 14:20:45;;;;;;;0.20;0.20;;;13.00;99.90;;;;;;5123269;27;20070;-75
2023/10/16 14:23:14;;;;;;;0.30;0.30;;;13.00;99.90;;;;;;5104942;28;20100;-75
2023/10/16 14:25:57;;;;;;;0.30;0.30;;;13.10;99.90;;;;;;5104160;28;20047;-73
2023/10/16 14:28:34;;;;;;;0.30;0.30;;;13.10;99.90;;;;;;5104476;28;20703;-74
2023/10/16 14:31:04;;;;;;;;;;;13.20;99.90;;;;;;5102636;27;20078;-74
2023/10/16 14:33:31;;;;;;;0.20;0.20;;;13.10;99.90;;;;;;5104914;28;19924;-74
2023/10/16 14:36:00;;;;;;;0.30;0.30;;;13.00;99.90;;;;;;5103602;28;20140;-74
2023/10/16 14:38:27;;;;;;;0.40;0.40;;;12.90;99.90;;;;;;5103586;28;20052;-74
2023/10/16 14:40:55;;;;;;;0.40;0.40;;;12.70;99.90;;;;;;5101602;28;20125;-73
2023/10/16 14:43:22;;;;;;;0.30;0.30;;;12.70;99.90;;;;;;5103600;27;20138;-73
2023/10/16 14:45:48;;;;;;;0.20;0.20;;;12.70;99.90;;;;;;5100965;28;20151;-75
2023/10/16 14:48:17;;;;;;;0.30;0.30;;;12.60;99.90;;;;;;5105623;27;20039;-73
2023/10/16 14:50:45;;;;;;;0.30;0.30;;;12.60;99.90;;;;;;5106455;27;20422;-73
2023/10/16 14:53:12;;;;;;;0.20;0.20;;;12.50;99.90;;;;;;5108697;27;20047;-73
2023/10/16 14:55:39;;;;;;;0.30;0.30;;;12.50;99.90;;;;;;5108775;28;20035;-73
2023/10/16 14:58:08;;;;;;;0.20;0.20;;;12.50;99.90;;;;;;5060174;28;20498;-74
2023/10/16 15:00:45;;;;;;;0.20;0.20;;;12.40;99.90;;;;;;5108843;27;20058;-74
2023/10/16 15:03:13;;;;;;;0.30;0.30;;;12.30;99.90;;;;;;5108723;27;20035;-73
2023/10/16 15:05:41;;;;;;;0.20;0.20;;;12.30;99.90;;;;;;5106598;27;20118;-73
2023/10/16 15:08:13;;;;;;;0.32;0.32;;;12.20;99.90;;;;;;5110010;27;20047;-73
2023/10/16 15:10:42;;;;;;;0.30;0.30;;;12.20;99.90;;;;;;5106763;27;20048;-74
2023/10/16 15:13:12;;;;;;;0.40;0.40;;;12.20;99.90;;;;;;5109317;27;20055;-74
2023/10/16 15:15:39;;;;;;;0.30;0.30;;;12.10;99.90;;;;;;5107036;27;20050;-74
2023/10/16 15:18:07;;;;;;;0.30;0.30;;;12.10;99.90;;;;;;5105955;27;20048;-73
2023/10/16 15:20:33;;;;;;;0.30;0.30;;;12.00;99.90;;;;;;5108581;27;20055;-74